createdAt,value
2022-10-30T00:00:55.386Z,0.88715
2022-10-30T00:05:57.028Z,0
2022-10-30T00:10:58.889Z,0
2022-10-30T00:16:00.650Z,0.88715
2022-10-30T00:26:04.448Z,0.88715
2022-10-30T00:31:06.243Z,0.88715
2022-10-30T00:36:08.035Z,0
2022-10-30T00:41:09.980Z,0
2022-10-30T00:46:11.792Z,0
2022-10-30T00:51:13.565Z,0
2022-10-30T00:56:15.545Z,0
2022-10-30T01:01:17.443Z,0
2022-10-30T01:06:19.323Z,0.88715
2022-10-30T01:11:21.364Z,0
2022-10-30T01:16:23.110Z,0.88715
2022-10-30T01:21:24.924Z,0
2022-10-30T01:26:27.096Z,0
2022-10-30T01:31:28.869Z,0
2022-10-30T01:36:30.320Z,0
2022-10-30T01:41:31.864Z,0
2022-10-30T01:46:33.381Z,0
2022-10-30T01:51:34.880Z,0
2022-10-30T01:56:36.643Z,0
2022-10-30T02:01:38.223Z,0
2022-10-30T02:06:39.708Z,0.88715
2022-10-30T02:11:41.397Z,0
2022-10-30T02:16:42.830Z,0
2022-10-30T02:21:44.696Z,0
2022-10-30T02:26:47.548Z,0
2022-10-30T02:31:49.348Z,0
2022-10-30T02:36:51.117Z,0.88715
2022-10-30T02:41:52.926Z,0.88715
2022-10-30T02:46:54.914Z,0.88715
2022-10-30T02:51:56.822Z,0.88715
2022-10-30T02:56:58.852Z,0
2022-10-30T03:02:00.755Z,0.4148
2022-10-30T03:07:02.612Z,3.85445
2022-10-30T03:12:04.428Z,5.51085
2022-10-30T03:17:06.339Z,8.8293
2022-10-30T03:22:08.112Z,15.1782
2022-10-30T03:27:10.127Z,22.22345
2022-10-30T03:32:12.012Z,35.31755
2022-10-30T03:37:13.812Z,45.9035
2022-10-30T03:42:15.683Z,63.8846
2022-10-30T03:47:17.438Z,83.15685
2022-10-30T03:52:19.221Z,98.2799
2022-10-30T03:57:21.303Z,148.3516
2022-10-30T04:02:23.194Z,194.9739
2022-10-30T04:07:24.887Z,182.4693
2022-10-30T04:12:26.569Z,204.56345
2022-10-30T04:17:28.367Z,203.58605
2022-10-30T04:22:30.153Z,231.1757
2022-10-30T04:27:31.763Z,254.0628
2022-10-30T04:32:33.413Z,288.62355
2022-10-30T04:37:34.926Z,342.641
2022-10-30T04:42:36.499Z,358.37255
2022-10-30T04:47:37.984Z,404.99485
2022-10-30T04:52:39.488Z,450.2157
2022-10-30T04:57:41.287Z,462.27725
2022-10-30T05:07:44.281Z,454.6425
2022-10-30T05:12:45.960Z,460.0467
2022-10-30T05:17:47.628Z,483.432
2022-10-30T05:22:49.297Z,480.20505
2022-10-30T05:27:51.421Z,506.707
2022-10-30T05:32:53.229Z,511.77845
2022-10-30T05:37:54.923Z,527.67545
2022-10-30T05:42:57.260Z,560.11595
2022-10-30T05:47:59.307Z,568.19375
2022-10-30T05:53:01.473Z,588.03835
2022-10-30T05:58:03.492Z,633.57295
2022-10-30T06:03:05.376Z,661.6798
2022-10-30T06:08:07.161Z,695.30115
2022-10-30T06:13:08.937Z,634.53135
2022-10-30T06:18:10.713Z,643.47625
2022-10-30T06:23:12.600Z,732.7218
2022-10-30T06:28:14.616Z,710.05345
2022-10-30T06:33:16.407Z,746.7743
2022-10-30T06:38:18.315Z,813.9447
2022-10-30T06:43:20.242Z,787.62535
2022-10-30T06:48:22.129Z,859.16555
2022-10-30T06:53:23.910Z,921.1885
2022-10-30T06:58:26.087Z,955.2339
2022-10-30T07:03:27.888Z,920.00765
2022-10-30T07:08:29.869Z,765.30505
2022-10-30T07:13:31.346Z,950.7195
2022-10-30T07:18:33.042Z,868.51365
2022-10-30T07:23:34.735Z,894.2778
2022-10-30T07:28:36.434Z,816.39215
2022-10-30T07:33:38.205Z,1076.81335
2022-10-30T07:38:39.621Z,1067.1098
2022-10-30T07:43:41.282Z,1024.652
2022-10-30T07:48:43.119Z,1031.45765
2022-10-30T07:53:44.935Z,1012.31285
2022-10-30T07:58:46.882Z,966.9437
2022-10-30T08:03:48.710Z,1067.01665
2022-10-30T08:08:50.497Z,1009.60125
2022-10-30T08:13:52.478Z,1059.9487
2022-10-30T08:18:54.215Z,1046.55985
2022-10-30T08:23:55.954Z,1016.9584
2022-10-30T08:28:58.040Z,1064.2462
2022-10-30T08:33:59.539Z,1061.7552
2022-10-30T08:39:01.305Z,1112.65785
2022-10-30T08:44:03.089Z,1056.4803
2022-10-30T08:49:04.874Z,1071.1793
2022-10-30T08:54:06.538Z,1062.9722
2022-10-30T08:59:08.283Z,1040.1574
2022-10-30T09:04:09.881Z,1125.51235
2022-10-30T09:09:11.331Z,1138.5703
2022-10-30T09:14:12.935Z,1256.052
2022-10-30T09:19:18.584Z,1206.9007
2022-10-30T09:24:20.579Z,1203.26685
2022-10-30T09:29:22.278Z,1200.94315
2022-10-30T09:34:23.797Z,1265.42095
2022-10-30T09:39:25.304Z,1273.6832
2022-10-30T09:44:26.962Z,1301.88135
2022-10-30T09:49:28.478Z,1181.79835
2022-10-30T09:54:29.965Z,1229.9171
2022-10-30T09:59:31.733Z,1212.80125
2022-10-30T10:04:33.317Z,1288.4355
2022-10-30T10:09:34.862Z,1361.37715
2022-10-30T10:14:36.786Z,1349.7568
2022-10-30T10:19:38.266Z,1314.9356
2022-10-30T10:24:39.719Z,1274.43445
2022-10-30T10:29:41.374Z,1346.97105
2022-10-30T10:34:42.856Z,1346.06595
2022-10-30T10:39:44.336Z,1508.4566
2022-10-30T10:44:45.832Z,1347.65185
2022-10-30T10:49:47.934Z,1211.0272
2022-10-30T10:54:49.477Z,1206.3798
2022-10-30T10:59:51.218Z,1183.0135
2022-10-30T11:04:52.741Z,1079.9189
2022-10-30T11:09:54.218Z,1093.56635
2022-10-30T11:14:55.732Z,1118.53755
2022-10-30T11:19:57.195Z,1232.90075
2022-10-30T11:24:58.672Z,1256.92885
2022-10-30T11:30:00.352Z,1634.71035
2022-10-30T11:35:01.818Z,1718.7153
2022-10-30T11:40:03.802Z,1511.08665
2022-10-30T11:45:05.710Z,1721.13215
2022-10-30T11:50:07.503Z,1474.77085
2022-10-30T11:55:09.033Z,1489.5287
2022-10-30T12:00:11.248Z,1024.8462
2022-10-30T12:05:12.978Z,1031.0262
2022-10-30T12:10:14.756Z,1175.56135
2022-10-30T12:15:16.471Z,1125.72925
2022-10-30T12:20:18.292Z,1039.2333
2022-10-30T12:25:19.947Z,1410.8158
2022-10-30T12:30:21.868Z,1162.87045
2022-10-30T12:35:23.664Z,928.0229
2022-10-30T12:40:25.369Z,1692.93215
2022-10-30T12:45:27.302Z,1982.64525
2022-10-30T12:50:29.055Z,2093.8881
2022-10-30T12:55:30.954Z,1197.5874
2022-10-30T13:00:32.917Z,851.2421
2022-10-30T13:05:34.387Z,1543.15825
2022-10-30T13:10:35.976Z,1109.2372
2022-10-30T13:15:37.410Z,675.7476
2022-10-30T13:20:38.975Z,710.2722
2022-10-30T13:25:40.599Z,1368.28385
2022-10-30T13:30:42.436Z,1541.55335
2022-10-30T13:35:43.909Z,1101.3457
2022-10-30T13:40:45.715Z,680.1744
2022-10-30T13:45:47.531Z,783.8775
2022-10-30T13:50:49.338Z,600.57725
2022-10-30T13:55:51.145Z,1134.94805
2022-10-30T14:00:53.110Z,1320.20495
2022-10-30T14:05:54.883Z,1934.9334
2022-10-30T14:11:00.390Z,1999.2212
2022-10-30T14:16:02.851Z,1770.8827
2022-10-30T14:21:04.696Z,1766.9541
2022-10-30T14:26:06.509Z,1297.3313
2022-10-30T14:31:08.699Z,1007.4699
2022-10-30T14:36:10.576Z,703.85075
2022-10-30T14:41:13.725Z,1309.23295
2022-10-30T14:46:15.728Z,1290.62435
2022-10-30T14:51:17.530Z,684.9664
2022-10-30T14:56:19.288Z,1162.4121
2022-10-30T15:01:21.577Z,1117.9082
2022-10-30T15:06:23.450Z,1013.17255
2022-10-30T15:11:25.305Z,924.90625
2022-10-30T15:16:27.280Z,807.64885
2022-10-30T15:21:29.064Z,678.2576
2022-10-30T15:26:30.986Z,570.01925
2022-10-30T15:31:32.974Z,495.0505
2022-10-30T15:36:34.417Z,380.8736
2022-10-30T15:41:36.047Z,303.21225
2022-10-30T15:46:37.727Z,234.3665
2022-10-30T15:51:39.164Z,175.68265
2022-10-30T15:56:59.825Z,138.35515
2022-10-30T16:02:10.717Z,105.3803
2022-10-30T16:07:12.882Z,81.27435
2022-10-30T16:12:14.456Z,54.97585
2022-10-30T16:17:16.048Z,37.73255
2022-10-30T16:22:17.502Z,19.6963
2022-10-30T16:27:19.389Z,10.21705
2022-10-30T16:32:21.494Z,4.22335
2022-10-30T16:37:23.293Z,1.53075
2022-10-30T16:42:25.032Z,1.16185
2022-10-30T16:47:26.969Z,0.88715
2022-10-30T16:52:28.824Z,0.88715
2022-10-30T16:57:30.532Z,0.88715
2022-10-30T17:02:32.662Z,0.88715
2022-10-30T17:07:34.416Z,0
2022-10-30T17:12:35.891Z,0
2022-10-30T17:17:37.440Z,0
2022-10-30T17:22:38.878Z,0
2022-10-30T17:27:46.025Z,0
2022-10-30T17:32:48.632Z,0
2022-10-30T17:37:50.364Z,0
2022-10-30T17:42:52.279Z,0
2022-10-30T17:47:54.543Z,0.88715
2022-10-30T17:52:56.629Z,0
2022-10-30T17:57:58.656Z,0
2022-10-30T18:03:01.310Z,0
2022-10-30T18:08:03.677Z,0
2022-10-30T18:13:05.416Z,0
2022-10-30T18:18:07.257Z,0
2022-10-30T18:23:12.696Z,0
2022-10-30T18:28:22.330Z,0
2022-10-30T18:33:24.308Z,0
2022-10-30T18:38:26.170Z,0
2022-10-30T18:43:28.005Z,0
2022-10-30T18:48:29.787Z,0
2022-10-30T18:53:35.114Z,0
2022-10-30T18:58:37.219Z,0
2022-10-30T19:03:38.997Z,0
2022-10-30T19:08:40.682Z,0
2022-10-30T19:13:42.251Z,0
2022-10-30T19:18:44.077Z,0
2022-10-30T19:23:45.505Z,0
2022-10-30T19:28:47.278Z,0
2022-10-30T19:33:52.885Z,0.88715
2022-10-30T19:38:57.676Z,0
2022-10-30T19:43:59.195Z,0
2022-10-30T19:49:00.891Z,0
2022-10-30T19:54:02.352Z,0.88715
2022-10-30T19:59:03.941Z,0
2022-10-30T20:04:05.717Z,0
2022-10-30T20:09:07.383Z,0
2022-10-30T20:14:08.828Z,0
2022-10-30T20:19:10.295Z,0
2022-10-30T20:24:11.746Z,0
2022-10-30T20:29:13.217Z,0
2022-10-30T20:34:14.966Z,0
2022-10-30T20:39:16.443Z,0
2022-10-30T20:44:17.855Z,0
2022-10-30T20:49:19.380Z,0
2022-10-30T20:54:20.846Z,0
2022-10-30T20:59:22.275Z,0
2022-10-30T21:04:24.189Z,0
2022-10-30T21:09:25.602Z,0.88715
2022-10-30T21:14:27.115Z,0
2022-10-30T21:19:28.567Z,0
2022-10-30T21:24:30.063Z,0
2022-10-30T21:29:34.290Z,0
2022-10-30T21:34:36.939Z,0.88715
2022-10-30T21:39:38.730Z,0
2022-10-30T21:44:40.552Z,0
2022-10-30T21:49:42.381Z,0
2022-10-30T21:54:44.046Z,0
2022-10-30T21:59:45.896Z,0
2022-10-30T22:04:48.014Z,0
2022-10-30T22:09:49.796Z,0.88715
2022-10-30T22:14:51.249Z,0
2022-10-30T22:19:53.093Z,0
2022-10-30T22:24:54.612Z,0
2022-10-30T22:29:56.138Z,0
2022-10-30T22:34:58.080Z,0
2022-10-30T22:39:59.528Z,0
2022-10-30T22:45:00.966Z,0
2022-10-30T22:50:02.689Z,0
2022-10-30T22:55:04.500Z,0
2022-10-30T23:00:06.095Z,0
2022-10-30T23:05:08.515Z,0
2022-10-30T23:10:10.247Z,0
2022-10-30T23:15:11.944Z,0
2022-10-30T23:20:13.737Z,0
2022-10-30T23:25:15.515Z,0
2022-10-30T23:30:17.284Z,0
2022-10-30T23:35:19.154Z,0
2022-10-30T23:40:20.755Z,0
2022-10-30T23:45:22.241Z,0
2022-10-30T23:50:23.809Z,0
2022-10-30T23:55:25.606Z,0
